createdAt,value
2022-10-17T00:01:17.716Z,100050.41
2022-10-17T00:03:50.318Z,100048.20
2022-10-17T00:06:18.034Z,100047.98
2022-10-17T00:08:45.902Z,100050.02
2022-10-17T00:11:22.317Z,100054.78
2022-10-17T00:13:56.440Z,100055.38
2022-10-17T00:16:34.179Z,100055.44
2022-10-17T00:19:02.372Z,100056.34
2022-10-17T00:21:32.212Z,100059.51
2022-10-17T00:24:02.767Z,100065.36
2022-10-17T00:26:33.384Z,100071.36
2022-10-17T00:29:01.114Z,100072.73
2022-10-17T00:31:33.861Z,100066.05
2022-10-17T00:34:02.915Z,100066.64
2022-10-17T00:36:30.938Z,100064.83
2022-10-17T00:39:01.841Z,100065.03
2022-10-17T00:41:32.534Z,100065.71
2022-10-17T00:44:29.455Z,100063.71
2022-10-17T00:47:05.125Z,100063.38
2022-10-17T00:49:39.395Z,100062.81
2022-10-17T00:52:20.567Z,100064.77
2022-10-17T00:54:58.532Z,100069.54
2022-10-17T00:57:31.852Z,100068.27
2022-10-17T01:00:05.017Z,100070.60
2022-10-17T01:02:32.708Z,100068.73
2022-10-17T01:05:06.969Z,100069.84
2022-10-17T01:07:40.883Z,100072.98
2022-10-17T01:10:11.034Z,100069.89
2022-10-17T01:12:44.846Z,100071.36
2022-10-17T01:15:27.610Z,100071.70
2022-10-17T01:18:27.192Z,100068.40
2022-10-17T01:21:25.489Z,100069.41
2022-10-17T01:24:14.588Z,100067.67
2022-10-17T01:27:00.956Z,100067.19
2022-10-17T01:29:44.123Z,100065.32
2022-10-17T01:32:41.910Z,100071.15
2022-10-17T01:35:14.363Z,100074.65
2022-10-17T01:38:11.903Z,100077.08
2022-10-17T01:40:49.384Z,100080.90
2022-10-17T01:43:37.196Z,100081.88
2022-10-17T01:46:20.334Z,100083.60
2022-10-17T01:48:48.016Z,100086.14
2022-10-17T01:51:25.279Z,100085.50
2022-10-17T01:54:06.323Z,100080.09
2022-10-17T01:56:38.918Z,100078.25
2022-10-17T01:59:31.351Z,100072.79
2022-10-17T02:02:01.430Z,100072.52
2022-10-17T02:04:29.360Z,100076.48
2022-10-17T02:07:15.209Z,100077.23
2022-10-17T02:09:47.302Z,100078.34
2022-10-17T02:12:40.865Z,100082.14
2022-10-17T02:15:11.580Z,100091.02
2022-10-17T02:18:14.835Z,100092.97
2022-10-17T02:21:03.681Z,100094.84
2022-10-17T02:24:09.606Z,100095.84
2022-10-17T02:27:00.411Z,100099.77
2022-10-17T02:29:53.631Z,100102.78
2022-10-17T02:32:52.135Z,100106.42
2022-10-17T02:35:28.272Z,100113.95
2022-10-17T02:38:03.708Z,100115.45
2022-10-17T02:40:34.273Z,100119.96
2022-10-17T02:43:01.986Z,100118.79
2022-10-17T02:45:36.773Z,100120.84
2022-10-17T02:48:38.824Z,100121.20
2022-10-17T02:51:38.529Z,100123.04
2022-10-17T02:54:31.726Z,100120.20
2022-10-17T02:57:17.477Z,100112.54
2022-10-17T02:59:51.150Z,100110.06
2022-10-17T03:02:18.985Z,100115.25
2022-10-17T03:04:51.888Z,100119.02
2022-10-17T03:07:24.293Z,100116.86
2022-10-17T03:09:51.969Z,100116.95
2022-10-17T03:12:19.626Z,100117.35
2022-10-17T03:14:47.283Z,100118.84
2022-10-17T03:17:14.925Z,100122.77
2022-10-17T03:19:42.663Z,100118.67
2022-10-17T03:22:10.349Z,100122.02
2022-10-17T03:24:38.069Z,100119.00
2022-10-17T03:27:05.807Z,100119.86
2022-10-17T03:29:33.707Z,100124.52
2022-10-17T03:32:02.182Z,100127.20
2022-10-17T03:34:29.934Z,100129.69
2022-10-17T03:36:57.633Z,100127.19
2022-10-17T03:39:26.646Z,100134.20
2022-10-17T03:41:54.319Z,100137.26
2022-10-17T03:44:22.063Z,100136.65
2022-10-17T03:46:49.898Z,100135.77
2022-10-17T03:49:17.745Z,100138.44
2022-10-17T03:51:45.509Z,100139.61
2022-10-17T03:54:13.239Z,100141.13
2022-10-17T03:56:41.783Z,100146.20
2022-10-17T03:59:14.526Z,100149.45
2022-10-17T04:01:42.839Z,100147.52
2022-10-17T04:04:10.970Z,100147.70
2022-10-17T04:06:39.345Z,100146.46
2022-10-17T04:09:07.939Z,100148.23
2022-10-17T04:11:35.661Z,100146.49
2022-10-17T04:14:03.534Z,100154.83
2022-10-17T04:16:31.193Z,100152.73
2022-10-17T04:19:00.557Z,100155.20
2022-10-17T04:21:29.739Z,100157.30
2022-10-17T04:24:00.600Z,100158.46
2022-10-17T04:26:28.446Z,100162.10
2022-10-17T04:28:56.592Z,100165.89
2022-10-17T04:31:25.363Z,100167.20
2022-10-17T04:33:53.277Z,100164.45
2022-10-17T04:36:23.507Z,100162.89
2022-10-17T04:38:51.363Z,100162.66
2022-10-17T04:41:20.134Z,100165.20
2022-10-17T04:43:50.972Z,100167.39
2022-10-17T04:46:19.381Z,100166.88
2022-10-17T04:48:47.155Z,100167.61
2022-10-17T04:51:20.684Z,100165.73
2022-10-17T04:53:51.530Z,100169.86
2022-10-17T04:56:22.082Z,100172.57
2022-10-17T04:58:49.997Z,100170.69
2022-10-17T05:01:20.478Z,100173.12
2022-10-17T05:03:49.159Z,100176.36
2022-10-17T05:06:28.747Z,100184.29
2022-10-17T05:08:58.499Z,100187.69
2022-10-17T05:11:29.106Z,100190.33
2022-10-17T05:14:00.078Z,100196.68
2022-10-17T05:16:30.314Z,100200.55
2022-10-17T05:18:59.785Z,100200.66
2022-10-17T05:21:30.642Z,100203.29
2022-10-17T05:23:59.792Z,100206.07
2022-10-17T05:26:27.531Z,100210.86
2022-10-17T05:28:55.279Z,100215.61
2022-10-17T05:31:23.084Z,100216.23
2022-10-17T05:33:50.718Z,100221.80
2022-10-17T05:36:19.143Z,100224.39
2022-10-17T05:38:53.104Z,100226.27
2022-10-17T05:41:20.907Z,100233.42
2022-10-17T05:43:50.710Z,100236.04
2022-10-17T05:46:18.683Z,100235.27
2022-10-17T05:48:48.281Z,100235.61
2022-10-17T05:51:16.041Z,100235.92
2022-10-17T05:53:43.780Z,100240.98
2022-10-17T05:56:14.822Z,100248.25
2022-10-17T05:58:50.617Z,100246.53
2022-10-17T06:01:22.128Z,100245.81
2022-10-17T06:03:49.839Z,100250.55
2022-10-17T06:06:19.031Z,100254.02
2022-10-17T06:08:47.104Z,100256.08
2022-10-17T06:11:14.924Z,100258.46
2022-10-17T06:13:42.768Z,100261.06
2022-10-17T06:16:10.488Z,100266.64
2022-10-17T06:18:38.173Z,100267.94
2022-10-17T06:21:09.861Z,100269.59
2022-10-17T06:23:38.384Z,100274.58
2022-10-17T06:26:07.903Z,100275.33
2022-10-17T06:28:36.606Z,100278.84
2022-10-17T06:31:07.473Z,100278.83
2022-10-17T06:33:36.306Z,100279.52
2022-10-17T06:36:07.512Z,100276.14
2022-10-17T06:38:36.188Z,100278.91
2022-10-17T06:41:10.686Z,100278.02
2022-10-17T06:43:40.853Z,100278.73
2022-10-17T06:46:10.514Z,100277.04
2022-10-17T06:48:38.384Z,100272.05
2022-10-17T06:51:10.520Z,100275.38
2022-10-17T06:53:40.900Z,100281.59
2022-10-17T06:56:10.937Z,100286.73
2022-10-17T06:58:41.687Z,100286.02
2022-10-17T07:01:12.905Z,100292.06
2022-10-17T07:03:41.689Z,100298.50
2022-10-17T07:06:11.396Z,100297.85
2022-10-17T07:08:44.860Z,100299.31
2022-10-17T07:11:14.207Z,100303.95
2022-10-17T07:13:43.370Z,100303.26
2022-10-17T07:16:12.886Z,100305.71
2022-10-17T07:18:40.777Z,100303.66
2022-10-17T07:21:10.683Z,100306.95
2022-10-17T07:23:41.422Z,100305.96
2022-10-17T07:26:13.756Z,100307.22
2022-10-17T07:28:44.996Z,100304.36
2022-10-17T07:31:19.059Z,100308.92
2022-10-17T07:33:48.703Z,100307.73
2022-10-17T07:36:17.768Z,100307.23
2022-10-17T07:38:45.475Z,100304.20
2022-10-17T07:41:17.873Z,100307.25
2022-10-17T07:43:49.066Z,100311.17
2022-10-17T07:46:16.865Z,100319.38
2022-10-17T07:48:44.547Z,100328.25
2022-10-17T07:51:12.258Z,100334.15
2022-10-17T07:53:42.757Z,100331.13
2022-10-17T07:56:14.063Z,100331.70
2022-10-17T07:58:44.816Z,100329.77
2022-10-17T08:01:15.859Z,100328.77
2022-10-17T08:03:51.056Z,100325.47
2022-10-17T08:06:18.898Z,100325.62
2022-10-17T08:08:46.616Z,100320.18
2022-10-17T08:11:16.772Z,100317.60
2022-10-17T08:13:44.534Z,100323.30
2022-10-17T08:16:13.677Z,100318.96
2022-10-17T08:18:44.130Z,100322.17
2022-10-17T08:21:15.130Z,100321.17
2022-10-17T08:23:44.425Z,100322.06
2022-10-17T08:26:17.270Z,100325.02
2022-10-17T08:28:45.922Z,100319.81
2022-10-17T08:31:18.920Z,100317.19
2022-10-17T08:33:49.428Z,100316.79
2022-10-17T08:36:21.237Z,100319.30
2022-10-17T08:38:52.591Z,100321.88
2022-10-17T08:42:00.212Z,100317.87
2022-10-17T08:44:43.539Z,100321.30
2022-10-17T08:47:16.523Z,100319.16
2022-10-17T08:49:56.238Z,100316.80
2022-10-17T08:52:39.929Z,100313.56
2022-10-17T08:55:21.462Z,100313.23
2022-10-17T08:57:49.360Z,100313.50
2022-10-17T09:00:21.066Z,100316.14
2022-10-17T09:03:10.779Z,100319.27
2022-10-17T09:05:59.749Z,100323.29
2022-10-17T09:08:53.633Z,100325.35
2022-10-17T09:11:52.933Z,100319.91
2022-10-17T09:14:46.650Z,100311.71
2022-10-17T09:17:43.166Z,100316.05
2022-10-17T09:20:18.522Z,100316.77
2022-10-17T09:23:14.463Z,100319.89
2022-10-17T09:25:46.173Z,100322.89
2022-10-17T09:28:24.421Z,100319.58
2022-10-17T09:31:04.162Z,100319.46
2022-10-17T09:33:59.193Z,100317.54
2022-10-17T09:36:41.026Z,100322.00
2022-10-17T09:39:19.209Z,100321.60
2022-10-17T09:41:55.871Z,100322.67
2022-10-17T09:44:34.048Z,100320.12
2022-10-17T09:47:24.399Z,100322.39
2022-10-17T09:49:53.528Z,100321.45
2022-10-17T09:52:36.913Z,100327.41
2022-10-17T09:55:18.493Z,100320.90
2022-10-17T09:58:01.027Z,100326.52
2022-10-17T10:00:33.279Z,100324.67
2022-10-17T10:03:15.528Z,100322.80
2022-10-17T10:06:02.900Z,100322.77
2022-10-17T10:08:37.936Z,100324.19
2022-10-17T10:11:13.607Z,100324.02
2022-10-17T10:13:43.365Z,100318.23
2022-10-17T10:16:33.839Z,100314.59
2022-10-17T10:19:03.715Z,100316.98
2022-10-17T10:21:36.184Z,100317.58
2022-10-17T10:24:15.396Z,100314.09
2022-10-17T10:26:48.209Z,100310.25
2022-10-17T10:29:35.361Z,100309.27
2022-10-17T10:32:19.507Z,100305.13
2022-10-17T10:34:52.691Z,100306.49
2022-10-17T10:37:25.765Z,100300.95
2022-10-17T10:39:59.179Z,100300.58
2022-10-17T10:42:38.293Z,100301.44
2022-10-17T10:45:47.627Z,100304.86
2022-10-17T10:48:36.641Z,100304.02
2022-10-17T10:51:09.744Z,100307.10
2022-10-17T10:54:26.604Z,100305.55
2022-10-17T10:57:00.165Z,100301.81
2022-10-17T10:59:50.375Z,100298.85
2022-10-17T11:02:45.757Z,100297.00
2022-10-17T11:05:22.425Z,100300.20
2022-10-17T11:08:11.345Z,100297.55
2022-10-17T11:11:08.328Z,100296.44
2022-10-17T11:13:49.594Z,100290.30
2022-10-17T11:17:03.094Z,100289.50
2022-10-17T11:20:01.475Z,100281.60
2022-10-17T11:22:39.964Z,100276.76
2022-10-17T11:25:31.765Z,100273.59
2022-10-17T11:28:04.837Z,100272.10
2022-10-17T11:30:46.287Z,100274.36
2022-10-17T11:33:49.505Z,100270.17
2022-10-17T11:36:20.968Z,100268.64
2022-10-17T11:38:56.145Z,100271.00
2022-10-17T11:41:35.533Z,100274.48
2022-10-17T11:44:27.914Z,100273.17
2022-10-17T11:47:01.883Z,100266.20
2022-10-17T11:49:40.579Z,100267.66
2022-10-17T11:55:30.210Z,100263.14
2022-10-17T11:58:16.550Z,100265.34
2022-10-17T12:01:10.463Z,100263.59
2022-10-17T12:03:48.661Z,100265.19
2022-10-17T12:06:45.715Z,100261.69
2022-10-17T12:09:22.409Z,100260.30
2022-10-17T12:11:57.541Z,100261.80
2022-10-17T12:14:47.489Z,100260.61
2022-10-17T12:17:40.564Z,100261.40
2022-10-17T12:20:21.246Z,100264.04
2022-10-17T12:23:10.228Z,100260.64
2022-10-17T12:25:50.856Z,100263.43
2022-10-17T12:28:34.509Z,100265.55
2022-10-17T12:31:22.373Z,100262.48
2022-10-17T12:33:55.744Z,100259.98
2022-10-17T12:36:23.475Z,100256.19
2022-10-17T12:39:01.880Z,100257.16
2022-10-17T12:41:50.551Z,100252.65
2022-10-17T12:44:21.923Z,100254.98
2022-10-17T12:46:52.642Z,100250.23
2022-10-17T12:49:53.154Z,100256.56
2022-10-17T12:52:25.568Z,100252.57
2022-10-17T12:55:10.930Z,100254.05
2022-10-17T12:57:50.618Z,100250.55
2022-10-17T13:01:18.976Z,100255.55
2022-10-17T13:03:48.172Z,100254.84
2022-10-17T13:06:23.292Z,100251.95
2022-10-17T13:09:03.528Z,100251.54
2022-10-17T13:11:36.724Z,100251.09
2022-10-17T13:14:12.688Z,100249.89
2022-10-17T13:16:53.649Z,100247.40
2022-10-17T13:19:26.269Z,100244.44
2022-10-17T13:21:59.844Z,100239.69
2022-10-17T13:24:39.553Z,100237.39
2022-10-17T13:27:24.728Z,100239.14
2022-10-17T13:29:52.478Z,100240.29
2022-10-17T13:32:20.225Z,100237.86
2022-10-17T13:35:07.326Z,100235.58
2022-10-17T13:37:37.618Z,100231.58
2022-10-17T13:40:24.850Z,100230.27
2022-10-17T13:42:58.235Z,100232.52
2022-10-17T13:45:34.679Z,100234.27
2022-10-17T13:48:06.302Z,100232.23
2022-10-17T13:50:44.571Z,100232.23
2022-10-17T13:53:13.065Z,100227.34
2022-10-17T13:56:09.497Z,100227.81
2022-10-17T13:58:51.168Z,100224.91
2022-10-17T14:01:21.134Z,100222.64
2022-10-17T14:04:02.181Z,100224.33
2022-10-17T14:06:49.815Z,100225.00
2022-10-17T14:09:30.862Z,100224.73
2022-10-17T14:12:07.084Z,100222.45
2022-10-17T14:14:57.981Z,100222.98
2022-10-17T14:17:29.526Z,100218.41
2022-10-17T14:20:34.411Z,100218.59
2022-10-17T14:23:20.803Z,100224.83
2022-10-17T14:25:42.295Z,100226.17
2022-10-17T14:28:12.312Z,100230.44
2022-10-17T14:30:56.216Z,100226.89
2022-10-17T14:33:32.233Z,100226.43
2022-10-17T14:36:02.979Z,100228.40
2022-10-17T14:38:32.231Z,100230.38
2022-10-17T14:44:16.354Z,100227.27
2022-10-17T14:46:50.672Z,100229.23
2022-10-17T14:49:34.484Z,100228.05
2022-10-17T14:52:18.219Z,100227.31
2022-10-17T14:54:49.257Z,100220.26
2022-10-17T14:57:27.486Z,100216.89
2022-10-17T14:59:56.815Z,100220.73
2022-10-17T15:02:28.376Z,100221.86
2022-10-17T15:04:58.160Z,100220.23
2022-10-17T15:07:25.906Z,100218.19
2022-10-17T15:09:54.555Z,100219.48
2022-10-17T15:12:25.479Z,100219.52
2022-10-17T15:14:54.558Z,100221.48
2022-10-17T15:17:29.166Z,100222.98
2022-10-17T15:19:58.546Z,100225.45
2022-10-17T15:22:26.430Z,100225.36
2022-10-17T15:24:55.699Z,100231.27
2022-10-17T15:27:25.008Z,100231.10
2022-10-17T15:29:53.455Z,100231.68
2022-10-17T15:32:21.183Z,100236.52
2022-10-17T15:34:48.863Z,100238.11
2022-10-17T15:37:24.252Z,100237.56
2022-10-17T15:39:55.881Z,100240.84
2022-10-17T15:42:29.772Z,100244.63
2022-10-17T15:44:58.797Z,100242.31
2022-10-17T15:47:35.784Z,100243.54
2022-10-17T15:50:04.858Z,100245.80
2022-10-17T15:52:33.381Z,100247.45
2022-10-17T15:55:04.315Z,100250.95
2022-10-17T15:57:38.285Z,100254.61
2022-10-17T16:00:16.715Z,100255.38
2022-10-17T16:02:49.974Z,100260.52
2022-10-17T16:05:26.422Z,100264.88
2022-10-17T16:07:54.159Z,100263.20
2022-10-17T16:10:24.033Z,100264.05
2022-10-17T16:12:54.063Z,100262.64
2022-10-17T16:15:28.095Z,100263.31
2022-10-17T16:18:00.480Z,100263.23
2022-10-17T16:20:33.907Z,100266.27
2022-10-17T16:23:03.730Z,100266.47
2022-10-17T16:25:33.056Z,100258.17
2022-10-17T16:28:01.970Z,100260.08
2022-10-17T16:30:32.448Z,100256.56
2022-10-17T16:33:00.157Z,100255.52
2022-10-17T16:35:34.734Z,100258.06
2022-10-17T16:38:08.206Z,100253.44
2022-10-17T16:40:40.348Z,100257.54
2022-10-17T16:43:14.646Z,100258.94
2022-10-17T16:45:42.736Z,100265.10
2022-10-17T16:48:11.497Z,100265.72
2022-10-17T16:50:40.758Z,100265.45
2022-10-17T16:53:08.494Z,100256.38
2022-10-17T16:55:38.743Z,100254.91
2022-10-17T16:58:06.536Z,100251.39
2022-10-17T17:00:34.264Z,100245.06
2022-10-17T17:03:01.953Z,100246.83
2022-10-17T17:05:29.702Z,100250.13
2022-10-17T17:07:57.536Z,100244.84
2022-10-17T17:10:27.779Z,100247.09
2022-10-17T17:12:56.921Z,100248.63
2022-10-17T17:15:24.657Z,100252.84
2022-10-17T17:17:55.529Z,100254.08
2022-10-17T17:20:24.296Z,100255.44
2022-10-17T17:22:52.553Z,100258.96
2022-10-17T17:25:22.901Z,100258.34
2022-10-17T17:27:50.743Z,100257.70
2022-10-17T17:30:18.589Z,100260.36
2022-10-17T17:32:46.281Z,100261.03
2022-10-17T17:35:14.808Z,100258.23
2022-10-17T17:37:42.616Z,100257.48
2022-10-17T17:40:12.031Z,100252.92
2022-10-17T17:42:41.215Z,100256.27
2022-10-17T17:45:11.968Z,100261.04
2022-10-17T17:47:40.024Z,100259.17
2022-10-17T17:50:08.473Z,100254.77
2022-10-17T17:52:42.724Z,100254.73
2022-10-17T17:55:10.418Z,100254.39
2022-10-17T17:57:39.192Z,100255.72
2022-10-17T18:00:07.625Z,100251.04
2022-10-17T18:02:37.657Z,100248.55
2022-10-17T18:05:07.986Z,100248.43
2022-10-17T18:07:37.778Z,100249.87
2022-10-17T18:10:08.989Z,100250.21
2022-10-17T18:12:36.805Z,100252.60
2022-10-17T18:15:07.710Z,100248.86
2022-10-17T18:17:35.492Z,100252.47
2022-10-17T18:20:05.627Z,100251.92
2022-10-17T18:22:35.863Z,100250.69
2022-10-17T18:25:03.710Z,100249.36
2022-10-17T18:27:31.379Z,100246.47
2022-10-17T18:29:59.028Z,100244.40
2022-10-17T18:32:30.426Z,100244.07
2022-10-17T18:34:58.758Z,100246.60
2022-10-17T18:37:26.588Z,100246.30
2022-10-17T18:39:56.311Z,100244.45
2022-10-17T18:42:24.035Z,100243.41
2022-10-17T18:44:51.840Z,100242.14
2022-10-17T18:47:20.190Z,100240.77
2022-10-17T18:49:48.866Z,100239.95
2022-10-17T18:52:16.525Z,100236.52
2022-10-17T18:54:44.182Z,100240.20
2022-10-17T18:57:13.131Z,100234.21
2022-10-17T18:59:41.895Z,100240.49
2022-10-17T19:02:13.202Z,100242.05
2022-10-17T19:04:41.087Z,100237.17
2022-10-17T19:07:08.838Z,100238.79
2022-10-17T19:09:37.399Z,100238.16
2022-10-17T19:12:05.325Z,100237.22
2022-10-17T19:14:33.413Z,100237.26
2022-10-17T19:17:01.881Z,100241.15
2022-10-17T19:19:31.311Z,100242.23
2022-10-17T19:22:01.780Z,100244.73
2022-10-17T19:24:30.382Z,100248.37
2022-10-17T19:27:03.940Z,100244.53
2022-10-17T19:29:32.174Z,100245.80
2022-10-17T19:32:01.007Z,100247.75
2022-10-17T19:34:28.943Z,100249.14
2022-10-17T19:36:59.557Z,100252.21
2022-10-17T19:39:27.391Z,100252.58
2022-10-17T19:41:57.376Z,100252.12
2022-10-17T19:44:25.308Z,100250.64
2022-10-17T19:46:53.016Z,100250.98
2022-10-17T19:49:21.212Z,100249.52
2022-10-17T19:51:49.106Z,100250.48
2022-10-17T19:54:20.342Z,100250.27
2022-10-17T19:56:48.083Z,100250.55
2022-10-17T19:59:17.371Z,100248.77
2022-10-17T20:01:46.945Z,100254.06
2022-10-17T20:04:15.681Z,100248.83
2022-10-17T20:06:43.438Z,100247.81
2022-10-17T20:09:16.619Z,100250.91
2022-10-17T20:11:49.538Z,100247.63
2022-10-17T20:14:18.236Z,100242.29
2022-10-17T20:16:50.356Z,100243.95
2022-10-17T20:19:18.648Z,100243.50
2022-10-17T20:21:46.478Z,100238.75
2022-10-17T20:24:18.174Z,100241.84
2022-10-17T20:26:46.079Z,100242.35
2022-10-17T20:29:20.518Z,100240.81
2022-10-17T20:31:49.034Z,100238.59
2022-10-17T20:34:19.667Z,100240.05
2022-10-17T20:36:49.566Z,100243.30
2022-10-17T20:39:20.437Z,100239.59
2022-10-17T20:41:48.587Z,100234.86
2022-10-17T20:44:16.310Z,100239.59
2022-10-17T20:46:57.620Z,100237.36
2022-10-17T20:49:32.698Z,100234.95
2022-10-17T20:52:02.307Z,100234.95
2022-10-17T20:54:30.357Z,100235.02
2022-10-17T20:57:03.876Z,100236.50
2022-10-17T20:59:36.172Z,100236.55
2022-10-17T21:02:06.586Z,100235.02
2022-10-17T21:04:51.996Z,100231.48
2022-10-17T21:07:22.610Z,100228.21
2022-10-17T21:09:50.293Z,100223.92
2022-10-17T21:12:26.047Z,100222.66
2022-10-17T21:15:05.051Z,100221.23
2022-10-17T21:17:34.674Z,100221.42
2022-10-17T21:20:02.379Z,100219.52
2022-10-17T21:22:30.261Z,100224.14
2022-10-17T21:24:58.527Z,100223.53
2022-10-17T21:27:26.248Z,100224.42
2022-10-17T21:29:54.107Z,100227.83
2022-10-17T21:32:39.455Z,100228.65
2022-10-17T21:35:13.028Z,100230.96
2022-10-17T21:37:40.694Z,100229.94
2022-10-17T21:40:10.777Z,100228.77
2022-10-17T21:42:38.518Z,100224.00
2022-10-17T21:45:15.173Z,100220.48
2022-10-17T21:48:11.307Z,100218.69
2022-10-17T21:50:32.902Z,100216.33
2022-10-17T21:53:00.598Z,100218.87
2022-10-17T21:55:28.421Z,100225.88
2022-10-17T21:57:56.189Z,100223.90
2022-10-17T22:00:23.827Z,100222.58
2022-10-17T22:02:51.467Z,100218.02
2022-10-17T22:05:19.111Z,100214.23
2022-10-17T22:07:49.174Z,100214.03
2022-10-17T22:10:17.004Z,100210.91
2022-10-17T22:12:44.644Z,100208.57
2022-10-17T22:15:12.254Z,100207.44
2022-10-17T22:17:39.917Z,100201.75
2022-10-17T22:20:08.031Z,100195.19
2022-10-17T22:22:35.747Z,100193.59
2022-10-17T22:25:03.561Z,100193.06
2022-10-17T22:27:33.275Z,100187.97
2022-10-17T22:30:01.217Z,100182.61
2022-10-17T22:32:29.008Z,100175.40
2022-10-17T22:34:56.692Z,100180.60
2022-10-17T22:37:24.398Z,100179.17
2022-10-17T22:39:52.072Z,100184.42
2022-10-17T22:42:19.700Z,100178.24
2022-10-17T22:44:49.160Z,100181.10
2022-10-17T22:47:16.887Z,100173.15
2022-10-17T22:49:44.553Z,100168.52
2022-10-17T22:52:12.252Z,100162.67
2022-10-17T22:54:41.875Z,100162.41
2022-10-17T22:57:09.523Z,100160.06
2022-10-17T22:59:37.114Z,100159.95
2022-10-17T23:02:04.898Z,100161.40
2022-10-17T23:04:34.538Z,100160.50
2022-10-17T23:07:02.275Z,100161.88
2022-10-17T23:09:29.916Z,100156.74
2022-10-17T23:11:57.561Z,100157.14
2022-10-17T23:14:25.188Z,100156.16
2022-10-17T23:16:52.815Z,100153.73
2022-10-17T23:19:20.480Z,100155.46
2022-10-17T23:21:48.135Z,100150.98
2022-10-17T23:24:16.108Z,100152.83
2022-10-17T23:26:43.789Z,100145.98
2022-10-17T23:29:11.566Z,100138.91
2022-10-17T23:31:40.811Z,100139.86
2022-10-17T23:34:08.573Z,100134.02
2022-10-17T23:36:36.213Z,100129.43
2022-10-17T23:39:07.191Z,100132.84
2022-10-17T23:41:34.843Z,100131.73
2022-10-17T23:44:04.741Z,100130.65
2022-10-17T23:46:32.861Z,100127.13
2022-10-17T23:49:02.414Z,100123.96
2022-10-17T23:51:30.225Z,100123.61
2022-10-17T23:53:59.834Z,100123.20
2022-10-17T23:56:28.013Z,100117.02
2022-10-17T23:58:55.666Z,100113.70
